sensor_id;sensor_type;location;lat;lon;timestamp;P1;durP1;ratioP1;P2;durP2;ratioP2
39266;SDS011;24967;51.154;13.812;2023-04-24T00:02:14;3.70;;;3.40;;
39266;SDS011;24967;51.154;13.812;2023-04-24T00:04:41;4.10;;;3.70;;
39266;SDS011;24967;51.154;13.812;2023-04-24T00:07:09;5.32;;;4.10;;
39266;SDS011;24967;51.154;13.812;2023-04-24T00:09:37;3.85;;;3.55;;
39266;SDS011;24967;51.154;13.812;2023-04-24T00:12:03;4.32;;;3.72;;
39266;SDS011;24967;51.154;13.812;2023-04-24T00:14:30;6.40;;;4.10;;
39266;SDS011;24967;51.154;13.812;2023-04-24T00:16:57;3.83;;;3.53;;
39266;SDS011;24967;51.154;13.812;2023-04-24T00:19:23;3.90;;;3.60;;
39266;SDS011;24967;51.154;13.812;2023-04-24T00:21:49;4.25;;;3.85;;
39266;SDS011;24967;51.154;13.812;2023-04-24T00:24:16;4.10;;;3.80;;
39266;SDS011;24967;51.154;13.812;2023-04-24T00:26:44;5.28;;;4.10;;
39266;SDS011;24967;51.154;13.812;2023-04-24T00:29:10;3.70;;;3.40;;
39266;SDS011;24967;51.154;13.812;2023-04-24T00:31:37;4.30;;;3.90;;
39266;SDS011;24967;51.154;13.812;2023-04-24T00:34:04;4.32;;;3.90;;
39266;SDS011;24967;51.154;13.812;2023-04-24T00:36:31;4.03;;;3.72;;
39266;SDS011;24967;51.154;13.812;2023-04-24T00:38:57;4.13;;;3.63;;
39266;SDS011;24967;51.154;13.812;2023-04-24T00:41:24;4.03;;;3.58;;
39266;SDS011;24967;51.154;13.812;2023-04-24T00:43:53;4.20;;;3.80;;
39266;SDS011;24967;51.154;13.812;2023-04-24T00:46:19;4.22;;;3.83;;
39266;SDS011;24967;51.154;13.812;2023-04-24T00:48:46;3.50;;;3.20;;
39266;SDS011;24967;51.154;13.812;2023-04-24T00:51:13;4.15;;;3.70;;
39266;SDS011;24967;51.154;13.812;2023-04-24T00:53:39;6.15;;;3.65;;
39266;SDS011;24967;51.154;13.812;2023-04-24T00:56:06;4.30;;;3.90;;
39266;SDS011;24967;51.154;13.812;2023-04-24T00:58:32;4.45;;;4.05;;
39266;SDS011;24967;51.154;13.812;2023-04-24T01:01:01;4.15;;;3.85;;
39266;SDS011;24967;51.154;13.812;2023-04-24T01:03:32;4.38;;;3.97;;
39266;SDS011;24967;51.154;13.812;2023-04-24T01:06:01;4.38;;;4.00;;
39266;SDS011;24967;51.154;13.812;2023-04-24T01:08:29;4.00;;;3.60;;
39266;SDS011;24967;51.154;13.812;2023-04-24T01:10:56;4.85;;;4.45;;
39266;SDS011;24967;51.154;13.812;2023-04-24T01:13:23;4.97;;;4.45;;
39266;SDS011;24967;51.154;13.812;2023-04-24T01:15:50;5.10;;;4.03;;
39266;SDS011;24967;51.154;13.812;2023-04-24T01:18:18;5.47;;;3.85;;
39266;SDS011;24967;51.154;13.812;2023-04-24T01:20:46;5.53;;;4.00;;
39266;SDS011;24967;51.154;13.812;2023-04-24T01:23:17;5.38;;;3.70;;
39266;SDS011;24967;51.154;13.812;2023-04-24T01:25:44;3.60;;;3.30;;
39266;SDS011;24967;51.154;13.812;2023-04-24T01:28:11;3.90;;;3.50;;
39266;SDS011;24967;51.154;13.812;2023-04-24T01:30:39;3.60;;;3.40;;
39266;SDS011;24967;51.154;13.812;2023-04-24T01:33:05;4.20;;;3.70;;
39266;SDS011;24967;51.154;13.812;2023-04-24T01:35:32;6.88;;;3.70;;
39266;SDS011;24967;51.154;13.812;2023-04-24T01:37:59;4.93;;;2.97;;
39266;SDS011;24967;51.154;13.812;2023-04-24T01:40:27;4.72;;;3.50;;
39266;SDS011;24967;51.154;13.812;2023-04-24T01:42:54;3.63;;;3.42;;
39266;SDS011;24967;51.154;13.812;2023-04-24T01:45:21;3.85;;;3.45;;
39266;SDS011;24967;51.154;13.812;2023-04-24T01:47:47;4.43;;;3.85;;
39266;SDS011;24967;51.154;13.812;2023-04-24T01:50:15;4.35;;;3.58;;
39266;SDS011;24967;51.154;13.812;2023-04-24T01:52:42;4.00;;;3.60;;
39266;SDS011;24967;51.154;13.812;2023-04-24T01:55:09;3.70;;;3.50;;
39266;SDS011;24967;51.154;13.812;2023-04-24T01:57:37;4.47;;;3.92;;
39266;SDS011;24967;51.154;13.812;2023-04-24T02:00:04;3.33;;;3.10;;
39266;SDS011;24967;51.154;13.812;2023-04-24T02:02:32;4.13;;;3.47;;
39266;SDS011;24967;51.154;13.812;2023-04-24T02:04:59;4.45;;;3.80;;
39266;SDS011;24967;51.154;13.812;2023-04-24T02:07:26;4.97;;;4.45;;
39266;SDS011;24967;51.154;13.812;2023-04-24T02:09:52;4.90;;;4.13;;
39266;SDS011;24967;51.154;13.812;2023-04-24T02:12:20;4.25;;;3.95;;
39266;SDS011;24967;51.154;13.812;2023-04-24T02:14:48;4.82;;;4.32;;
39266;SDS011;24967;51.154;13.812;2023-04-24T02:17:14;4.43;;;4.05;;
39266;SDS011;24967;51.154;13.812;2023-04-24T02:19:41;7.43;;;4.15;;
39266;SDS011;24967;51.154;13.812;2023-04-24T02:22:08;4.53;;;4.20;;
39266;SDS011;24967;51.154;13.812;2023-04-24T02:24:35;4.30;;;3.90;;
39266;SDS011;24967;51.154;13.812;2023-04-24T02:27:02;4.22;;;3.92;;
39266;SDS011;24967;51.154;13.812;2023-04-24T02:29:28;3.58;;;3.30;;
39266;SDS011;24967;51.154;13.812;2023-04-24T02:31:56;3.75;;;2.88;;
39266;SDS011;24967;51.154;13.812;2023-04-24T02:34:23;3.55;;;2.60;;
39266;SDS011;24967;51.154;13.812;2023-04-24T02:36:49;2.83;;;2.63;;
39266;SDS011;24967;51.154;13.812;2023-04-24T02:39:16;4.80;;;2.67;;
39266;SDS011;24967;51.154;13.812;2023-04-24T02:41:43;2.08;;;1.98;;
39266;SDS011;24967;51.154;13.812;2023-04-24T02:44:10;2.78;;;2.58;;
39266;SDS011;24967;51.154;13.812;2023-04-24T02:46:36;3.25;;;3.05;;
39266;SDS011;24967;51.154;13.812;2023-04-24T02:49:04;3.25;;;2.90;;
39266;SDS011;24967;51.154;13.812;2023-04-24T02:51:30;3.13;;;2.92;;
39266;SDS011;24967;51.154;13.812;2023-04-24T02:53:57;4.22;;;2.90;;
39266;SDS011;24967;51.154;13.812;2023-04-24T02:56:23;3.22;;;2.58;;
39266;SDS011;24967;51.154;13.812;2023-04-24T02:58:50;2.42;;;2.25;;
39266;SDS011;24967;51.154;13.812;2023-04-24T03:01:16;2.45;;;2.35;;
39266;SDS011;24967;51.154;13.812;2023-04-24T03:03:43;2.75;;;2.50;;
39266;SDS011;24967;51.154;13.812;2023-04-24T03:06:11;2.47;;;2.15;;
39266;SDS011;24967;51.154;13.812;2023-04-24T03:08:38;3.90;;;2.08;;
39266;SDS011;24967;51.154;13.812;2023-04-24T03:11:04;2.95;;;2.75;;
39266;SDS011;24967;51.154;13.812;2023-04-24T03:13:30;3.67;;;2.75;;
39266;SDS011;24967;51.154;13.812;2023-04-24T03:15:57;2.70;;;2.50;;
39266;SDS011;24967;51.154;13.812;2023-04-24T03:18:23;3.70;;;2.85;;
39266;SDS011;24967;51.154;13.812;2023-04-24T03:20:50;3.17;;;2.58;;
39266;SDS011;24967;51.154;13.812;2023-04-24T03:23:18;3.25;;;2.95;;
39266;SDS011;24967;51.154;13.812;2023-04-24T03:25:44;4.35;;;2.90;;
39266;SDS011;24967;51.154;13.812;2023-04-24T03:28:11;3.30;;;3.00;;
39266;SDS011;24967;51.154;13.812;2023-04-24T03:30:37;2.65;;;2.42;;
39266;SDS011;24967;51.154;13.812;2023-04-24T03:33:03;2.80;;;2.60;;
39266;SDS011;24967;51.154;13.812;2023-04-24T03:35:30;2.67;;;2.58;;
39266;SDS011;24967;51.154;13.812;2023-04-24T03:37:56;3.38;;;2.92;;
39266;SDS011;24967;51.154;13.812;2023-04-24T03:40:24;2.70;;;2.50;;
39266;SDS011;24967;51.154;13.812;2023-04-24T03:42:51;3.15;;;2.30;;
39266;SDS011;24967;51.154;13.812;2023-04-24T03:45:17;2.42;;;2.17;;
39266;SDS011;24967;51.154;13.812;2023-04-24T03:47:44;1.92;;;1.83;;
39266;SDS011;24967;51.154;13.812;2023-04-24T03:50:10;1.73;;;1.63;;
39266;SDS011;24967;51.154;13.812;2023-04-24T03:52:37;2.70;;;1.60;;
39266;SDS011;24967;51.154;13.812;2023-04-24T03:55:04;1.60;;;1.50;;
39266;SDS011;24967;51.154;13.812;2023-04-24T03:57:32;2.50;;;2.03;;
39266;SDS011;24967;51.154;13.812;2023-04-24T03:59:59;2.55;;;2.35;;
39266;SDS011;24967;51.154;13.812;2023-04-24T04:02:26;4.47;;;4.05;;
39266;SDS011;24967;51.154;13.812;2023-04-24T04:04:53;3.70;;;3.40;;
39266;SDS011;24967;51.154;13.812;2023-04-24T04:07:19;1.77;;;1.67;;
39266;SDS011;24967;51.154;13.812;2023-04-24T04:09:45;2.15;;;2.05;;
39266;SDS011;24967;51.154;13.812;2023-04-24T04:12:12;1.85;;;1.70;;
39266;SDS011;24967;51.154;13.812;2023-04-24T04:14:40;2.03;;;1.55;;
39266;SDS011;24967;51.154;13.812;2023-04-24T04:17:06;2.90;;;1.38;;
39266;SDS011;24967;51.154;13.812;2023-04-24T04:19:33;2.45;;;1.30;;
39266;SDS011;24967;51.154;13.812;2023-04-24T04:21:59;1.50;;;1.17;;
39266;SDS011;24967;51.154;13.812;2023-04-24T04:24:26;1.10;;;1.10;;
39266;SDS011;24967;51.154;13.812;2023-04-24T04:26:53;1.45;;;1.33;;
39266;SDS011;24967;51.154;13.812;2023-04-24T04:29:21;3.13;;;1.27;;
39266;SDS011;24967;51.154;13.812;2023-04-24T04:31:50;2.95;;;1.20;;
39266;SDS011;24967;51.154;13.812;2023-04-24T04:34:16;2.05;;;1.13;;
39266;SDS011;24967;51.154;13.812;2023-04-24T04:36:43;2.85;;;1.10;;
39266;SDS011;24967;51.154;13.812;2023-04-24T04:39:11;1.85;;;1.02;;
39266;SDS011;24967;51.154;13.812;2023-04-24T04:41:39;2.63;;;0.93;;
39266;SDS011;24967;51.154;13.812;2023-04-24T04:44:06;2.00;;;1.10;;
39266;SDS011;24967;51.154;13.812;2023-04-24T04:46:33;0.90;;;0.90;;
39266;SDS011;24967;51.154;13.812;2023-04-24T04:49:03;2.67;;;1.40;;
39266;SDS011;24967;51.154;13.812;2023-04-24T04:51:30;0.90;;;0.90;;
39266;SDS011;24967;51.154;13.812;2023-04-24T04:53:57;1.38;;;1.27;;
39266;SDS011;24967;51.154;13.812;2023-04-24T04:56:23;1.55;;;1.30;;
39266;SDS011;24967;51.154;13.812;2023-04-24T04:58:49;1.25;;;1.23;;
39266;SDS011;24967;51.154;13.812;2023-04-24T05:01:16;1.15;;;1.13;;
39266;SDS011;24967;51.154;13.812;2023-04-24T05:03:42;1.15;;;1.13;;
39266;SDS011;24967;51.154;13.812;2023-04-24T05:06:10;2.42;;;1.38;;
39266;SDS011;24967;51.154;13.812;2023-04-24T05:08:37;3.50;;;1.10;;
39266;SDS011;24967;51.154;13.812;2023-04-24T05:11:03;2.13;;;1.17;;
39266;SDS011;24967;51.154;13.812;2023-04-24T05:13:30;1.85;;;1.20;;
39266;SDS011;24967;51.154;13.812;2023-04-24T05:15:57;2.25;;;1.25;;
39266;SDS011;24967;51.154;13.812;2023-04-24T05:18:23;0.98;;;0.90;;
39266;SDS011;24967;51.154;13.812;2023-04-24T05:20:50;1.27;;;1.10;;
39266;SDS011;24967;51.154;13.812;2023-04-24T05:23:18;1.17;;;0.90;;
39266;SDS011;24967;51.154;13.812;2023-04-24T05:25:44;1.85;;;1.17;;
39266;SDS011;24967;51.154;13.812;2023-04-24T05:28:11;1.30;;;1.00;;
39266;SDS011;24967;51.154;13.812;2023-04-24T05:30:37;1.23;;;0.88;;
39266;SDS011;24967;51.154;13.812;2023-04-24T05:33:04;2.45;;;1.00;;
39266;SDS011;24967;51.154;13.812;2023-04-24T05:35:31;1.90;;;1.10;;
39266;SDS011;24967;51.154;13.812;2023-04-24T05:37:57;2.13;;;1.10;;
39266;SDS011;24967;51.154;13.812;2023-04-24T05:40:25;1.52;;;1.20;;
39266;SDS011;24967;51.154;13.812;2023-04-24T05:42:52;2.35;;;1.33;;
39266;SDS011;24967;51.154;13.812;2023-04-24T05:45:18;1.10;;;1.00;;
39266;SDS011;24967;51.154;13.812;2023-04-24T05:47:45;0.82;;;0.82;;
39266;SDS011;24967;51.154;13.812;2023-04-24T05:50:12;0.82;;;0.82;;
39266;SDS011;24967;51.154;13.812;2023-04-24T05:52:38;1.98;;;0.70;;
39266;SDS011;24967;51.154;13.812;2023-04-24T05:55:05;2.15;;;1.02;;
39266;SDS011;24967;51.154;13.812;2023-04-24T05:57:33;1.38;;;0.82;;
39266;SDS011;24967;51.154;13.812;2023-04-24T06:00:00;3.30;;;0.90;;
39266;SDS011;24967;51.154;13.812;2023-04-24T06:02:27;0.95;;;0.80;;
39266;SDS011;24967;51.154;13.812;2023-04-24T06:04:57;3.05;;;1.15;;
39266;SDS011;24967;51.154;13.812;2023-04-24T06:07:24;1.30;;;0.80;;
39266;SDS011;24967;51.154;13.812;2023-04-24T06:09:51;1.13;;;1.05;;
39266;SDS011;24967;51.154;13.812;2023-04-24T06:12:18;2.17;;;0.73;;
39266;SDS011;24967;51.154;13.812;2023-04-24T06:14:46;0.88;;;0.80;;
39266;SDS011;24967;51.154;13.812;2023-04-24T06:17:12;2.38;;;1.08;;
39266;SDS011;24967;51.154;13.812;2023-04-24T06:19:39;1.45;;;1.10;;
39266;SDS011;24967;51.154;13.812;2023-04-24T06:22:09;1.90;;;1.08;;
39266;SDS011;24967;51.154;13.812;2023-04-24T06:24:35;3.53;;;1.00;;
39266;SDS011;24967;51.154;13.812;2023-04-24T06:27:02;0.73;;;0.73;;
39266;SDS011;24967;51.154;13.812;2023-04-24T06:29:28;1.05;;;0.60;;
39266;SDS011;24967;51.154;13.812;2023-04-24T06:31:56;2.67;;;0.80;;
39266;SDS011;24967;51.154;13.812;2023-04-24T06:34:26;0.90;;;0.90;;
39266;SDS011;24967;51.154;13.812;2023-04-24T06:37:15;1.83;;;0.80;;
39266;SDS011;24967;51.154;13.812;2023-04-24T06:39:41;1.65;;;0.77;;
39266;SDS011;24967;51.154;13.812;2023-04-24T06:42:08;2.97;;;0.70;;
39266;SDS011;24967;51.154;13.812;2023-04-24T06:44:34;0.60;;;0.60;;
39266;SDS011;24967;51.154;13.812;2023-04-24T06:49:50;1.08;;;0.90;;
39266;SDS011;24967;51.154;13.812;2023-04-24T06:52:34;0.80;;;0.50;;
39266;SDS011;24967;51.154;13.812;2023-04-24T06:55:01;1.95;;;0.90;;
39266;SDS011;24967;51.154;13.812;2023-04-24T06:57:28;2.38;;;0.93;;
39266;SDS011;24967;51.154;13.812;2023-04-24T06:59:55;1.40;;;0.90;;
39266;SDS011;24967;51.154;13.812;2023-04-24T07:02:23;2.47;;;0.80;;
39266;SDS011;24967;51.154;13.812;2023-04-24T07:04:49;1.55;;;0.70;;
39266;SDS011;24967;51.154;13.812;2023-04-24T07:07:15;1.90;;;0.90;;
39266;SDS011;24967;51.154;13.812;2023-04-24T07:09:42;1.20;;;0.90;;
39266;SDS011;24967;51.154;13.812;2023-04-24T07:12:09;1.15;;;0.85;;
39266;SDS011;24967;51.154;13.812;2023-04-24T07:14:36;1.20;;;1.00;;
39266;SDS011;24967;51.154;13.812;2023-04-24T07:17:03;2.90;;;1.15;;
39266;SDS011;24967;51.154;13.812;2023-04-24T07:19:31;0.70;;;0.70;;
39266;SDS011;24967;51.154;13.812;2023-04-24T07:22:00;1.42;;;0.63;;
39266;SDS011;24967;51.154;13.812;2023-04-24T07:24:27;2.13;;;1.00;;
39266;SDS011;24967;51.154;13.812;2023-04-24T07:26:54;1.50;;;0.60;;
39266;SDS011;24967;51.154;13.812;2023-04-24T07:29:21;1.08;;;0.63;;
39266;SDS011;24967;51.154;13.812;2023-04-24T07:31:48;5.85;;;1.65;;
39266;SDS011;24967;51.154;13.812;2023-04-24T07:34:14;0.90;;;0.70;;
39266;SDS011;24967;51.154;13.812;2023-04-24T07:36:42;1.27;;;0.70;;
39266;SDS011;24967;51.154;13.812;2023-04-24T07:39:09;1.38;;;0.60;;
39266;SDS011;24967;51.154;13.812;2023-04-24T07:41:35;1.35;;;0.60;;
39266;SDS011;24967;51.154;13.812;2023-04-24T07:44:02;0.90;;;0.90;;
39266;SDS011;24967;51.154;13.812;2023-04-24T07:46:29;0.85;;;0.85;;
39266;SDS011;24967;51.154;13.812;2023-04-24T07:48:56;0.60;;;0.60;;
39266;SDS011;24967;51.154;13.812;2023-04-24T07:51:24;1.13;;;0.63;;
39266;SDS011;24967;51.154;13.812;2023-04-24T07:53:52;1.65;;;0.60;;
39266;SDS011;24967;51.154;13.812;2023-04-24T07:56:19;1.63;;;0.90;;
39266;SDS011;24967;51.154;13.812;2023-04-24T07:58:46;1.33;;;0.60;;
39266;SDS011;24967;51.154;13.812;2023-04-24T08:01:12;1.52;;;0.50;;
39266;SDS011;24967;51.154;13.812;2023-04-24T08:03:38;2.40;;;0.75;;
39266;SDS011;24967;51.154;13.812;2023-04-24T08:06:05;1.42;;;0.55;;
39266;SDS011;24967;51.154;13.812;2023-04-24T08:08:32;0.70;;;0.70;;
39266;SDS011;24967;51.154;13.812;2023-04-24T08:11:00;0.50;;;0.50;;
39266;SDS011;24967;51.154;13.812;2023-04-24T08:13:27;1.85;;;0.80;;
39266;SDS011;24967;51.154;13.812;2023-04-24T08:15:53;2.35;;;0.60;;
39266;SDS011;24967;51.154;13.812;2023-04-24T08:18:20;0.75;;;0.50;;
39266;SDS011;24967;51.154;13.812;2023-04-24T08:20:46;0.90;;;0.60;;
39266;SDS011;24967;51.154;13.812;2023-04-24T08:23:12;2.38;;;0.52;;
39266;SDS011;24967;51.154;13.812;2023-04-24T08:25:39;1.48;;;0.60;;
39266;SDS011;24967;51.154;13.812;2023-04-24T08:28:07;5.15;;;0.70;;
39266;SDS011;24967;51.154;13.812;2023-04-24T08:30:35;3.05;;;0.60;;
39266;SDS011;24967;51.154;13.812;2023-04-24T08:33:01;1.63;;;0.85;;
39266;SDS011;24967;51.154;13.812;2023-04-24T08:35:28;2.15;;;0.60;;
39266;SDS011;24967;51.154;13.812;2023-04-24T08:37:54;1.45;;;0.68;;
39266;SDS011;24967;51.154;13.812;2023-04-24T08:40:22;0.90;;;0.60;;
39266;SDS011;24967;51.154;13.812;2023-04-24T08:42:53;2.08;;;0.60;;
39266;SDS011;24967;51.154;13.812;2023-04-24T08:45:23;1.42;;;0.50;;
39266;SDS011;24967;51.154;13.812;2023-04-24T08:47:52;1.48;;;0.68;;
39266;SDS011;24967;51.154;13.812;2023-04-24T08:50:19;1.65;;;0.73;;
39266;SDS011;24967;51.154;13.812;2023-04-24T08:52:46;3.80;;;0.80;;
39266;SDS011;24967;51.154;13.812;2023-04-24T08:55:13;2.63;;;0.70;;
39266;SDS011;24967;51.154;13.812;2023-04-24T08:57:41;3.45;;;0.90;;
39266;SDS011;24967;51.154;13.812;2023-04-24T09:00:10;3.63;;;0.80;;
39266;SDS011;24967;51.154;13.812;2023-04-24T09:02:40;3.10;;;0.80;;
39266;SDS011;24967;51.154;13.812;2023-04-24T09:05:08;3.05;;;0.50;;
39266;SDS011;24967;51.154;13.812;2023-04-24T09:07:36;3.90;;;0.70;;
39266;SDS011;24967;51.154;13.812;2023-04-24T09:10:05;1.73;;;0.60;;
39266;SDS011;24967;51.154;13.812;2023-04-24T09:12:33;0.57;;;0.50;;
39266;SDS011;24967;51.154;13.812;2023-04-24T09:15:00;0.40;;;0.40;;
39266;SDS011;24967;51.154;13.812;2023-04-24T09:17:29;2.55;;;0.70;;
39266;SDS011;24967;51.154;13.812;2023-04-24T09:19:57;1.02;;;0.50;;
39266;SDS011;24967;51.154;13.812;2023-04-24T09:22:24;0.50;;;0.50;;
39266;SDS011;24967;51.154;13.812;2023-04-24T09:24:59;0.50;;;0.50;;
39266;SDS011;24967;51.154;13.812;2023-04-24T09:27:28;1.83;;;0.60;;
39266;SDS011;24967;51.154;13.812;2023-04-24T09:29:54;1.10;;;0.43;;
39266;SDS011;24967;51.154;13.812;2023-04-24T09:32:21;0.95;;;0.60;;
39266;SDS011;24967;51.154;13.812;2023-04-24T09:35:04;1.05;;;0.55;;
39266;SDS011;24967;51.154;13.812;2023-04-24T09:37:35;2.17;;;0.60;;
39266;SDS011;24967;51.154;13.812;2023-04-24T09:40:11;2.03;;;0.90;;
39266;SDS011;24967;51.154;13.812;2023-04-24T09:42:39;0.52;;;0.52;;
39266;SDS011;24967;51.154;13.812;2023-04-24T09:45:09;0.93;;;0.70;;
39266;SDS011;24967;51.154;13.812;2023-04-24T09:47:36;0.67;;;0.53;;
39266;SDS011;24967;51.154;13.812;2023-04-24T09:50:10;0.40;;;0.40;;
39266;SDS011;24967;51.154;13.812;2023-04-24T09:52:42;1.95;;;0.60;;
39266;SDS011;24967;51.154;13.812;2023-04-24T09:55:16;1.17;;;0.70;;
39266;SDS011;24967;51.154;13.812;2023-04-24T09:57:48;1.98;;;0.73;;
39266;SDS011;24967;51.154;13.812;2023-04-24T10:00:21;1.80;;;0.50;;
39266;SDS011;24967;51.154;13.812;2023-04-24T10:02:55;1.35;;;1.00;;
39266;SDS011;24967;51.154;13.812;2023-04-24T10:05:24;1.38;;;0.70;;
39266;SDS011;24967;51.154;13.812;2023-04-24T10:07:55;2.55;;;0.60;;
39266;SDS011;24967;51.154;13.812;2023-04-24T10:10:22;1.20;;;0.60;;
39266;SDS011;24967;51.154;13.812;2023-04-24T10:12:50;1.20;;;0.52;;
39266;SDS011;24967;51.154;13.812;2023-04-24T10:15:17;1.45;;;0.50;;
39266;SDS011;24967;51.154;13.812;2023-04-24T10:17:46;0.60;;;0.50;;
39266;SDS011;24967;51.154;13.812;2023-04-24T10:20:17;2.15;;;0.70;;
39266;SDS011;24967;51.154;13.812;2023-04-24T10:22:45;0.50;;;0.50;;
39266;SDS011;24967;51.154;13.812;2023-04-24T10:25:14;1.42;;;0.55;;
39266;SDS011;24967;51.154;13.812;2023-04-24T10:27:42;1.13;;;0.50;;
39266;SDS011;24967;51.154;13.812;2023-04-24T10:30:10;1.75;;;0.60;;
39266;SDS011;24967;51.154;13.812;2023-04-24T10:32:38;0.40;;;0.40;;
39266;SDS011;24967;51.154;13.812;2023-04-24T10:35:05;0.47;;;0.40;;
39266;SDS011;24967;51.154;13.812;2023-04-24T10:37:34;0.40;;;0.40;;
39266;SDS011;24967;51.154;13.812;2023-04-24T10:40:04;0.45;;;0.40;;
39266;SDS011;24967;51.154;13.812;2023-04-24T10:42:33;2.05;;;0.50;;
39266;SDS011;24967;51.154;13.812;2023-04-24T10:44:59;0.77;;;0.70;;
39266;SDS011;24967;51.154;13.812;2023-04-24T10:47:39;1.13;;;0.60;;
39266;SDS011;24967;51.154;13.812;2023-04-24T10:50:07;1.48;;;0.77;;
39266;SDS011;24967;51.154;13.812;2023-04-24T10:52:44;0.55;;;0.52;;
39266;SDS011;24967;51.154;13.812;2023-04-24T10:55:13;3.55;;;0.70;;
39266;SDS011;24967;51.154;13.812;2023-04-24T10:57:40;0.55;;;0.47;;
39266;SDS011;24967;51.154;13.812;2023-04-24T11:00:27;0.60;;;0.60;;
39266;SDS011;24967;51.154;13.812;2023-04-24T11:02:54;1.02;;;0.40;;
39266;SDS011;24967;51.154;13.812;2023-04-24T11:05:21;1.40;;;0.40;;
39266;SDS011;24967;51.154;13.812;2023-04-24T11:10:39;1.02;;;0.70;;
39266;SDS011;24967;51.154;13.812;2023-04-24T11:13:06;0.95;;;0.60;;
39266;SDS011;24967;51.154;13.812;2023-04-24T11:15:33;1.02;;;0.40;;
39266;SDS011;24967;51.154;13.812;2023-04-24T11:17:59;0.52;;;0.40;;
39266;SDS011;24967;51.154;13.812;2023-04-24T11:20:26;0.98;;;0.50;;
39266;SDS011;24967;51.154;13.812;2023-04-24T11:22:53;1.70;;;0.50;;
39266;SDS011;24967;51.154;13.812;2023-04-24T11:25:22;2.03;;;0.57;;
39266;SDS011;24967;51.154;13.812;2023-04-24T11:27:51;1.02;;;0.50;;
39266;SDS011;24967;51.154;13.812;2023-04-24T11:30:29;1.20;;;0.70;;
39266;SDS011;24967;51.154;13.812;2023-04-24T11:32:56;1.27;;;0.80;;
39266;SDS011;24967;51.154;13.812;2023-04-24T11:35:28;2.85;;;0.70;;
39266;SDS011;24967;51.154;13.812;2023-04-24T11:37:55;1.17;;;0.40;;
39266;SDS011;24967;51.154;13.812;2023-04-24T11:40:23;2.00;;;0.65;;
39266;SDS011;24967;51.154;13.812;2023-04-24T11:42:52;2.75;;;0.70;;
39266;SDS011;24967;51.154;13.812;2023-04-24T11:45:21;0.70;;;0.50;;
39266;SDS011;24967;51.154;13.812;2023-04-24T11:47:49;0.93;;;0.35;;
39266;SDS011;24967;51.154;13.812;2023-04-24T11:50:16;1.00;;;0.47;;
39266;SDS011;24967;51.154;13.812;2023-04-24T11:52:44;0.88;;;0.30;;
39266;SDS011;24967;51.154;13.812;2023-04-24T11:55:22;0.43;;;0.43;;
39266;SDS011;24967;51.154;13.812;2023-04-24T11:57:53;0.70;;;0.50;;
39266;SDS011;24967;51.154;13.812;2023-04-24T12:00:22;0.43;;;0.43;;
39266;SDS011;24967;51.154;13.812;2023-04-24T12:02:49;2.25;;;0.40;;
39266;SDS011;24967;51.154;13.812;2023-04-24T12:05:19;1.95;;;0.40;;
39266;SDS011;24967;51.154;13.812;2023-04-24T12:07:45;1.05;;;0.43;;
39266;SDS011;24967;51.154;13.812;2023-04-24T12:10:12;0.65;;;0.30;;
39266;SDS011;24967;51.154;13.812;2023-04-24T12:12:39;1.00;;;0.38;;
39266;SDS011;24967;51.154;13.812;2023-04-24T12:15:07;0.75;;;0.50;;
39266;SDS011;24967;51.154;13.812;2023-04-24T12:17:35;1.70;;;0.70;;
39266;SDS011;24967;51.154;13.812;2023-04-24T12:20:03;1.33;;;0.60;;
39266;SDS011;24967;51.154;13.812;2023-04-24T12:22:44;2.08;;;0.73;;
39266;SDS011;24967;51.154;13.812;2023-04-24T12:25:12;0.80;;;0.80;;
39266;SDS011;24967;51.154;13.812;2023-04-24T12:27:39;1.35;;;0.65;;
39266;SDS011;24967;51.154;13.812;2023-04-24T12:30:09;0.70;;;0.70;;
39266;SDS011;24967;51.154;13.812;2023-04-24T12:32:40;0.80;;;0.80;;
39266;SDS011;24967;51.154;13.812;2023-04-24T12:35:08;0.60;;;0.60;;
39266;SDS011;24967;51.154;13.812;2023-04-24T12:37:35;0.50;;;0.50;;
39266;SDS011;24967;51.154;13.812;2023-04-24T12:40:02;0.40;;;0.40;;
39266;SDS011;24967;51.154;13.812;2023-04-24T12:42:31;1.57;;;0.43;;
39266;SDS011;24967;51.154;13.812;2023-04-24T12:44:59;3.13;;;0.50;;
39266;SDS011;24967;51.154;13.812;2023-04-24T12:47:28;0.50;;;0.50;;
39266;SDS011;24967;51.154;13.812;2023-04-24T12:49:55;2.45;;;0.60;;
39266;SDS011;24967;51.154;13.812;2023-04-24T12:52:21;1.42;;;0.60;;
39266;SDS011;24967;51.154;13.812;2023-04-24T12:54:48;2.13;;;0.60;;
39266;SDS011;24967;51.154;13.812;2023-04-24T12:57:15;0.60;;;0.60;;
39266;SDS011;24967;51.154;13.812;2023-04-24T12:59:41;1.42;;;0.60;;
39266;SDS011;24967;51.154;13.812;2023-04-24T13:02:08;2.30;;;0.60;;
39266;SDS011;24967;51.154;13.812;2023-04-24T13:04:36;0.50;;;0.50;;
39266;SDS011;24967;51.154;13.812;2023-04-24T13:07:03;0.60;;;0.50;;
39266;SDS011;24967;51.154;13.812;2023-04-24T13:09:29;1.00;;;0.75;;
39266;SDS011;24967;51.154;13.812;2023-04-24T13:11:56;2.45;;;0.63;;
39266;SDS011;24967;51.154;13.812;2023-04-24T13:14:23;1.67;;;0.88;;
39266;SDS011;24967;51.154;13.812;2023-04-24T13:16:49;1.30;;;0.40;;
39266;SDS011;24967;51.154;13.812;2023-04-24T13:19:16;1.00;;;0.68;;
39266;SDS011;24967;51.154;13.812;2023-04-24T13:21:44;1.30;;;0.50;;
39266;SDS011;24967;51.154;13.812;2023-04-24T13:24:10;0.50;;;0.50;;
39266;SDS011;24967;51.154;13.812;2023-04-24T13:26:38;0.77;;;0.70;;
39266;SDS011;24967;51.154;13.812;2023-04-24T13:29:04;0.60;;;0.60;;
39266;SDS011;24967;51.154;13.812;2023-04-24T13:31:30;2.05;;;0.77;;
39266;SDS011;24967;51.154;13.812;2023-04-24T13:33:57;0.60;;;0.60;;
39266;SDS011;24967;51.154;13.812;2023-04-24T13:36:23;2.10;;;0.70;;
39266;SDS011;24967;51.154;13.812;2023-04-24T13:38:51;1.23;;;0.90;;
39266;SDS011;24967;51.154;13.812;2023-04-24T13:41:18;1.42;;;0.70;;
39266;SDS011;24967;51.154;13.812;2023-04-24T13:43:44;1.65;;;0.60;;
39266;SDS011;24967;51.154;13.812;2023-04-24T13:46:11;1.10;;;0.68;;
39266;SDS011;24967;51.154;13.812;2023-04-24T13:48:37;0.93;;;0.82;;
39266;SDS011;24967;51.154;13.812;2023-04-24T13:51:04;1.45;;;0.70;;
39266;SDS011;24967;51.154;13.812;2023-04-24T13:53:30;1.15;;;0.77;;
39266;SDS011;24967;51.154;13.812;2023-04-24T13:55:59;0.50;;;0.50;;
39266;SDS011;24967;51.154;13.812;2023-04-24T13:58:25;1.67;;;0.60;;
39266;SDS011;24967;51.154;13.812;2023-04-24T14:00:52;0.60;;;0.60;;
39266;SDS011;24967;51.154;13.812;2023-04-24T14:03:18;0.52;;;0.50;;
39266;SDS011;24967;51.154;13.812;2023-04-24T14:05:45;1.13;;;0.70;;
39266;SDS011;24967;51.154;13.812;2023-04-24T14:08:11;0.70;;;0.70;;
39266;SDS011;24967;51.154;13.812;2023-04-24T14:10:37;0.57;;;0.57;;
39266;SDS011;24967;51.154;13.812;2023-04-24T14:13:05;0.75;;;0.65;;
39266;SDS011;24967;51.154;13.812;2023-04-24T14:15:32;0.90;;;0.70;;
39266;SDS011;24967;51.154;13.812;2023-04-24T14:17:58;0.65;;;0.65;;
39266;SDS011;24967;51.154;13.812;2023-04-24T14:20:25;0.60;;;0.60;;
39266;SDS011;24967;51.154;13.812;2023-04-24T14:22:51;1.75;;;0.70;;
39266;SDS011;24967;51.154;13.812;2023-04-24T14:25:18;0.95;;;0.47;;
39266;SDS011;24967;51.154;13.812;2023-04-24T14:27:44;0.88;;;0.50;;
39266;SDS011;24967;51.154;13.812;2023-04-24T14:30:13;1.38;;;0.50;;
39266;SDS011;24967;51.154;13.812;2023-04-24T14:32:40;0.70;;;0.70;;
39266;SDS011;24967;51.154;13.812;2023-04-24T14:35:07;0.98;;;0.63;;
39266;SDS011;24967;51.154;13.812;2023-04-24T14:37:34;1.60;;;0.65;;
39266;SDS011;24967;51.154;13.812;2023-04-24T14:40:01;2.05;;;0.65;;
39266;SDS011;24967;51.154;13.812;2023-04-24T14:42:27;0.82;;;0.80;;